• Join FlightAware (Why Join?)
  • Login
  • US Flag 
06:39AM EDT


 

Airport Tracker/Info


-or-


 

Live Flight TrackerFlight Track Log ✈ QJE1799 ✈ 22-Jun-2013 ✈ YBAS / ASP - YBBN / BNE

Flight Track Log - Related Links

Times and Time Zones

All times are in EDT time to prevent confusion due to time zone crossing. See the QJE1799 flight status page for this flight to view local times or setup timezone preferences in your user account.

Time Position Orientation Groundspeed Altitude Reporting Facility
EDT Latitude Longitude Course Direction KTS MPH feet Rate Location/Type
11:12PM -23.8997 134.3269 104° East 31,000  Level Aus ATC (Calculated)
11:12PM -23.9209 134.4167 104° East 31,000  Level Aus ATC (Calculated)
11:13PM -23.9209 134.4167 104° East 31,000  Level Aus ATC (Calculated)
11:13PM -23.9421 134.5065 104° East 31,000  Level Aus ATC (Calculated)
11:13PM -23.9632 134.5964 104° East 31,000  Level Aus ATC (Calculated)
11:15PM -24.0024 134.7637 104° East  Level FlightAware Approximate
11:15PM -23.9843 134.6863 104° East 31,000  Level Aus ATC (Calculated)
11:15PM -24.0053 134.7763 104° East 31,000  Level Aus ATC (Calculated)
11:17PM -24.0499 134.9675 104° East  Level FlightAware Approximate
11:17PM -24.0681 135.0463 104° East 31,000  Level Aus ATC (Calculated)
11:18PM -24.0889 135.1363 104° East 31,000  Level Aus ATC (Calculated)
11:19PM -24.1257 135.2959 104° East  Level FlightAware Approximate
11:19PM -24.1304 135.3165 104° East 31,000  Level Aus ATC (Calculated)
11:21PM -24.1943 135.5961 104° East  Level FlightAware Approximate
11:21PM -24.1922 135.5870 104° East 31,000  Level Aus ATC (Calculated)
11:23PM -24.2556 135.8668 104° East  Level FlightAware Approximate
11:24PM -24.2915 136.0268 104° East  Level FlightAware Approximate
11:25PM -24.3274 136.1869 104° East  Level FlightAware Approximate
11:26PM -24.3630 136.3471 104° East  Level FlightAware Approximate
11:27PM -24.3985 136.5074 104° East  Level FlightAware Approximate
11:28PM -24.4338 136.6678 104° East  Level FlightAware Approximate
11:29PM -24.4689 136.8282 104° East  Level FlightAware Approximate
11:29PM -24.4346 136.6716 103° East 31,000  Level Aus ATC (Calculated)
11:31PM -24.4949 136.9471 104° East  Level FlightAware Approximate
11:32PM -24.4624 136.7983 103° East  Level FlightAware Approximate
11:32PM -24.5407 137.1599 103° East 31,000  Level Aus ATC (Calculated)
11:34PM -24.6026 137.4493 103° East  Level FlightAware Approximate
11:34PM -24.6137 137.5012 103° East 31,000  Level Aus ATC (Calculated)
11:34PM -24.6378 137.6151 103° East 31,000  Level Aus ATC (Calculated)
11:36PM -24.6815 137.8217 103° East  Level FlightAware Approximate
11:37PM -24.6475 137.6607 283° West  Level FlightAware Approximate
11:38PM -24.6815 137.8217 103° East  Level FlightAware Approximate
11:39PM -24.6719 137.7765 103° East  Level FlightAware Approximate
11:40PM -24.7058 137.9376 103° East  Level FlightAware Approximate
11:41PM -24.7394 138.0988 103° East  Level FlightAware Approximate
11:42PM -24.7729 138.2601 103° East  Level FlightAware Approximate
11:43PM -24.8062 138.4214 103° East  Level FlightAware Approximate
11:44PM -24.8394 138.5829 103° East  Level FlightAware Approximate
11:45PM -24.8723 138.7444 103° East  Level FlightAware Approximate
11:45PM -25.0267 139.5139 102° East 33,000  Level Aus ATC (Calculated)
11:46PM -24.9051 138.9061 103° East  Level FlightAware Approximate
11:47PM -25.0789 139.7791 102° East  Level FlightAware Approximate
11:48PM -25.1135 139.9560 102° East  Level FlightAware Approximate
11:49PM -25.1478 140.1330 102° East  Level FlightAware Approximate
11:50PM -25.1819 140.3101 102° East  Level FlightAware Approximate
11:50PM -25.1962 140.3844 102° East 33,000  Level Aus ATC (Calculated)
11:51PM -25.2159 140.4874 102° East  Level FlightAware Approximate
11:52PM -25.2469 140.6503 102° East  Level FlightAware Approximate
11:53PM -25.2804 140.8277 102° East  Level FlightAware Approximate
11:54PM -25.3137 141.0052 102° East  Level FlightAware Approximate
11:54PM -25.3098 140.9843 102° East 33,000  Level Aus ATC (Calculated)
11:54PM -25.3301 141.0935 102° East 33,000  Level Aus ATC (Calculated)
11:55PM -25.3429 141.1619 102° East  Level FlightAware Approximate
11:56PM -25.3719 141.3185 102° East  Level FlightAware Approximate
11:57PM -25.3389 141.1409 282° West  Level FlightAware Approximate
11:58PM -25.3601 141.2547 102° East  Level FlightAware Approximate
11:59PM -25.3928 141.4324 102° East  Level FlightAware Approximate
12:00AM -25.4254 141.6103 101° East  Level FlightAware Approximate
12:01AM -25.4577 141.7882 101° East  Level FlightAware Approximate
12:02AM -25.4898 141.9662 101° East  Level FlightAware Approximate
12:03AM -25.5217 142.1443 101° East  Level FlightAware Approximate
12:04AM -25.5534 142.3226 101° East  Level FlightAware Approximate
12:05AM -25.5849 142.5009 101° East  Level FlightAware Approximate
12:06AM -25.6161 142.6793 101° East  Level FlightAware Approximate
12:07AM -25.6472 142.8578 101° East  Level FlightAware Approximate
12:08AM -25.6780 143.0364 101° East  Level FlightAware Approximate
12:09AM -25.7086 143.2150 101° East  Level FlightAware Approximate
12:10AM -25.7390 143.3938 101° East  Level FlightAware Approximate
12:11AM -25.7692 143.5727 101° East  Level FlightAware Approximate
12:12AM -25.7991 143.7516 101° East  Level FlightAware Approximate
12:13AM -25.8289 143.9307 100° East  Level FlightAware Approximate
12:14AM -25.8584 144.1098 100° East  Level FlightAware Approximate
12:15AM -25.8877 144.2890 100° East  Level FlightAware Approximate
12:15AM -25.9370 144.5939 100° East 33,000  Level Aus ATC (Calculated)
12:16AM -25.9167 144.4683 100° East  Level FlightAware Approximate
12:16AM -25.9938 144.9516 100° East 33,000  Level Aus ATC (Calculated)
12:17AM -25.9737 144.8242 100° East  Level FlightAware Approximate
12:18AM -26.0020 145.0038 100° East  Level FlightAware Approximate
12:19AM -26.0527 145.3290 100° East  Level FlightAware Approximate
12:20AM -26.0804 145.5088 100° East  Level FlightAware Approximate
12:21AM -26.1078 145.6887 100° East  Level FlightAware Approximate
12:21AM -26.1099 145.7022 100° East 33,000  Level Aus ATC (Calculated)
12:22AM -26.1351 145.8687 100° East  Level FlightAware Approximate
12:23AM -26.1511 145.9752 100° East  Level FlightAware Approximate
12:24AM -26.1780 146.1554 99° East  Level FlightAware Approximate
12:25AM -26.2046 146.3356 99° East  Level FlightAware Approximate
12:25AM -26.2312 146.5170 99° East 33,000  Level Aus ATC (Calculated)
12:26AM -26.2311 146.5159 99° East  Level FlightAware Approximate
12:27AM -26.2573 146.6963 99° East  Level FlightAware Approximate
12:28AM -26.2838 146.8808 99° East  Level FlightAware Approximate
12:29AM -26.3096 147.0614 99° East  Level FlightAware Approximate
12:29AM -26.3214 147.1448 99° East 33,000  Level Aus ATC (Calculated)
12:30AM -26.3351 147.2420 99° East  Level FlightAware Approximate
12:31AM -26.3574 147.4008 99° East  Level FlightAware Approximate
12:31AM -26.3655 147.4591 99° East 33,000  Level Aus ATC (Calculated)
12:32AM -26.3756 147.5336 99° East 563 648 33,200 120 Climbing Aus ATC (RADAR)
12:32AM -26.3870 147.6185 99° East 557 641 33,200  Level Aus ATC (RADAR)
12:33AM -26.4106 147.7881 99° East 552 635 33,200  Level Aus ATC (RADAR)
12:34AM -26.4287 147.9154 99° East 552 635 33,200 -120 Level Aus ATC (RADAR)
12:35AM -26.4419 148.0139 98° East 551 634 33,100 -120 Descending Aus ATC (RADAR)
12:35AM -26.4612 148.1551 99° East 550 633 33,100  Level Aus ATC (RADAR)
12:36AM -26.4849 148.3385 98° East 550 633 33,100  Level Aus ATC (RADAR)
12:37AM -26.4991 148.4514 98° East 551 634 33,100  Level Aus ATC (RADAR)
12:38AM -26.5123 148.5503 99° East 550 633 33,100  Level Aus ATC (RADAR)
12:39AM -26.5310 148.6915 98° East 549 632 33,100  Level Aus ATC (RADAR)
12:39AM -26.5529 148.8319 100° East 545 627 33,100  Level Aus ATC (RADAR)
12:40AM -26.5819 148.9708 103° East 550 633 33,100  Level Aus ATC (RADAR)
12:41AM -26.6092 149.1098 102° East 548 631 33,100 60 Level Aus ATC (RADAR)
12:42AM -26.6378 149.2495 103° East 552 635 33,200  Climbing Aus ATC (RADAR)
12:43AM -26.6715 149.4165 103° East 549 632 33,200  Level Aus ATC (RADAR)
12:44AM -26.7000 149.5564 103° East 552 635 33,200  Level Aus ATC (RADAR)
12:44AM -26.7280 149.6514 108° East 549 632 33,200  Level Aus ATC (RADAR)
12:45AM -26.7772 149.8000 110° East 550 633 33,200  Level Aus ATC (RADAR)
12:46AM -26.8230 149.9494 109° East 550 633 33,200  Level Aus ATC (RADAR)
12:48AM -26.9194 150.2608 109° East 545 627 33,200  Level Aus ATC (RADAR)
12:49AM -26.9642 150.4041 109° East 528 608 33,200  Level Aus ATC (RADAR)
12:50AM -26.9927 150.4957 109° East 529 609 33,200  Level Aus ATC (RADAR)
12:50AM -27.0331 150.6269 109° East 530 610 33,200  Level Aus ATC (RADAR)
12:51AM -27.0814 150.7839 109° East 527 606 33,200  Level Aus ATC (RADAR)
12:52AM -27.1250 150.9277 109° East 525 604 33,200  Level Aus ATC (RADAR)
12:53AM -27.1531 151.0185 109° East 523 602 33,200 -900 Level Aus ATC (RADAR)
12:54AM -27.1966 151.1608 109° East 514 592 31,900 -1,440 Descending Aus ATC (RADAR)
12:55AM -27.2323 151.2725 110° East 500 575 30,800 -1,500 Descending Aus ATC (RADAR)
12:55AM -27.3061 151.3847 127° Southeast 474 545 29,400 -1,500 Descending Aus ATC (RADAR)
12:56AM -27.3570 151.4282 143° Southeast 453 521 28,700 -1,500 Descending Aus ATC (RADAR)
12:57AM -27.4550 151.4886 151° Southeast 430 495 27,300 -1,320 Descending Aus ATC (RADAR)
12:58AM -27.5382 151.5427 150° Southeast 406 467 26,500 -1,020 Descending Aus ATC (RADAR)
12:58AM -27.6198 151.5953 150° Southeast 399 459 25,600 -1,080 Descending Aus ATC (RADAR)
12:59AM -27.6753 151.6321 150° Southeast 393 452 25,000 -960 Descending Aus ATC (RADAR)
01:00AM -27.7769 151.7001 149° Southeast 385 443 24,000 -1,020 Descending Aus ATC (RADAR)
01:01AM -27.8543 151.7676 142° Southeast 379 436 23,000 -1,020 Descending Aus ATC (RADAR)
01:02AM -27.8789 151.8525 108° East 374 430 22,300 -1,020 Descending Aus ATC (RADAR)
01:02AM -27.8603 151.9261 74° East 355 409 21,600 -1,020 Descending Aus ATC (RADAR)
01:03AM -27.8205 152.0039 60° Northeast 339 390 20,800 -780 Descending Aus ATC (RADAR)
01:04AM -27.7908 152.0559 57° Northeast 337 388 20,500 -720 Descending Aus ATC (RADAR)
01:05AM -27.7423 152.1364 56° Northeast 334 384 19,800 -780 Descending Aus ATC (RADAR)
01:06AM -27.7006 152.2081 57° Northeast 327 376 19,200 -720 Descending Aus ATC (RADAR)
01:07AM -27.6555 152.2868 57° Northeast 325 374 18,600 -720 Descending Aus ATC (RADAR)
01:07AM -27.6269 152.3363 57° Northeast 322 371 18,200 -720 Descending Aus ATC (RADAR)
01:08AM -27.5947 152.3927 57° Northeast 320 368 17,700 -720 Descending Aus ATC (RADAR)
01:09AM -27.5837 152.4750 81° East 340 391 17,200 -660 Descending Aus ATC (RADAR)
01:10AM -27.6078 152.5696 106° East 337 388 16,600 -720 Descending Aus ATC (RADAR)
01:10AM -27.6270 152.6553 104° East 331 381 16,000 -720 Descending Aus ATC (RADAR)
01:11AM -27.6333 152.7583 94° East 320 368 15,300 -720 Descending Aus ATC (RADAR)
01:12AM -27.6191 152.8179 75° East 331 381 14,900 -780 Descending Aus ATC (RADAR)
01:13AM -27.5991 152.9117 77° East 331 381 14,200 -780 Descending Aus ATC (RADAR)
01:13AM -27.5859 152.9712 76° East 330 380 13,800 -960 Descending Aus ATC (RADAR)
01:14AM -27.5674 153.0551 76° East 325 374 12,900 -1,380 Descending Aus ATC (RADAR)
01:15AM -27.5561 153.1127 77° East 318 366 11,900 -1,620 Descending Aus ATC (RADAR)
01:16AM -27.5008 153.1879 50° Northeast 306 352 10,200 -1,620 Descending Aus ATC (RADAR)
01:17AM -27.4427 153.2263 30° Northeast 289 333 8,800 -1,620 Descending Aus ATC (RADAR)
01:18AM -27.3923 153.2600 31° Northeast 282 325 7,700 -1,560 Descending Aus ATC (RADAR)
01:18AM -27.3359 153.2962 30° Northeast 280 322 6,400 -1,560 Descending Aus ATC (RADAR)
01:19AM -27.2939 153.3281 34° Northeast 275 316 5,400 -1,320 Descending Aus ATC (RADAR)
01:20AM -27.2520 153.3292 North 269 310 4,800 -900 Descending Aus ATC (RADAR)
01:21AM -27.2072 153.2710 311° West 243 280 4,000 -780 Descending Aus ATC (RADAR)
01:21AM -27.2230 153.2210 250° West 211 243 3,400 -960 Descending Aus ATC (RADAR)
01:22AM -27.2645 153.1987 206° Southwest 183 211 2,400 -1,020 Descending Aus ATC (RADAR)
01:23AM -27.2899 153.1838 207° Southwest 175 201 1,900 -840 Descending Aus ATC (RADAR)
01:24AM -27.3167 153.1684 207° Southwest 142 163 1,300 -780 Descending Aus ATC (RADAR)
01:25AM -27.3447 153.1527 207° Southwest 136 157 700 -720 Descending Aus ATC (RADAR)
01:25AM -27.3757 153.1341 208° Southwest 138 159 100 -660 Descending Aus ATC (RADAR)